Time;durP1;ratioP1;P1;durP2;ratioP2;P2;SDS_P1;SDS_P2;PMS_P1;PMS_P2;Temp;Humidity;BMP_temperature;BMP_pressure;BME280_temperature;BME280_humidity;BME280_pressure;Samples;Min_cycle;Max_cycle;Signal;HPM_P1;HPM_P2
2022/03/18 00:02:22;;;;;;;;;;;;;;;2.16;75.00;103867.31;4980766;28;20045;-78
2022/03/18 00:04:49;;;;;;;12.13;5.45;;;;;;;2.06;74.53;103861.94;4984370;28;19949;-78
2022/03/18 00:07:15;;;;;;;10.32;5.40;;;;;;;1.99;75.55;103859.44;4984223;28;20341;-78
2022/03/18 00:09:41;;;;;;;10.77;5.65;;;;;;;1.96;74.75;103869.41;4984759;28;20026;-79
2022/03/18 00:12:10;;;;;;;11.32;5.32;;;;;;;1.89;74.10;103873.88;4988584;28;20304;-79
2022/03/18 00:14:35;;;;;;;11.52;5.50;;;;;;;1.81;74.64;103876.34;4987103;28;20041;-79
2022/03/18 00:17:00;;;;;;;10.00;5.00;;;;;;;1.75;74.71;103879.16;4982535;28;20034;-80
2022/03/18 00:19:27;;;;;;;9.13;4.90;;;;;;;1.72;75.28;103884.91;4983696;28;20039;-80
2022/03/18 00:22:00;;;;;;;8.45;4.57;;;;;;;1.70;75.93;103880.34;4985935;28;20133;-80
2022/03/18 00:24:26;;;;;;;7.72;4.32;;;;;;;1.67;76.30;103883.50;4985787;28;20376;-80
2022/03/18 00:26:51;;;;;;;9.75;3.63;;;;;;;1.67;77.87;103875.78;4986887;28;20042;-80
2022/03/18 00:29:17;;;;;;;7.60;3.90;;;;;;;1.70;77.15;103886.38;4990840;28;20029;-80
2022/03/18 00:31:43;;;;;;;9.27;4.25;;;;;;;1.68;77.60;103881.81;4986571;28;20085;-80
2022/03/18 00:34:10;;;;;;;10.35;5.25;;;;;;;1.60;77.44;103872.38;4985388;28;20053;-80
2022/03/18 00:36:36;;;;;;;8.35;4.82;;;;;;;1.53;77.79;103875.94;4984468;28;20316;-80
2022/03/18 00:39:02;;;;;;;11.93;5.72;;;;;;;1.46;77.12;103879.47;4984160;28;20035;-80
2022/03/18 00:41:27;;;;;;;10.90;5.82;;;;;;;1.42;77.31;103881.53;4985605;28;20037;-80
2022/03/18 00:43:53;;;;;;;9.75;5.90;;;;;;;1.36;77.83;103881.78;4992329;28;20145;-80
2022/03/18 00:46:22;;;;;;;11.60;5.50;;;;;;;1.31;78.38;103872.66;4982143;28;20038;-80
2022/03/18 00:54:16;;;;;;;9.82;5.38;;;;;;;1.38;76.43;103895.72;4988181;28;20038;-80
2022/03/18 00:56:41;;;;;;;11.95;5.70;;;;;;;1.34;76.55;103904.72;4987991;28;20022;-80
2022/03/18 00:59:06;;;;;;;13.55;6.03;;;;;;;1.29;76.97;103900.75;4986785;28;20162;-80
2022/03/18 01:01:32;;;;;;;11.23;5.80;;;;;;;1.26;75.61;103904.63;4985972;28;20050;-80
2022/03/18 01:03:58;;;;;;;10.50;5.20;;;;;;;1.19;75.43;103905.63;4989452;28;20045;-80
2022/03/18 01:06:23;;;;;;;11.07;5.18;;;;;;;1.14;76.14;103905.09;4985270;28;20027;-80
2022/03/18 01:08:49;;;;;;;8.80;5.20;;;;;;;1.14;76.68;103915.34;4991929;28;20093;-80
2022/03/18 01:11:14;;;;;;;10.45;5.68;;;;;;;1.12;76.33;103919.44;4983809;28;20102;-80
2022/03/18 01:13:40;;;;;;;11.52;5.28;;;;;;;1.10;76.11;103920.00;4987419;28;20151;-80
2022/03/18 01:16:05;;;;;;;10.50;5.72;;;;;;;1.08;75.72;103927.53;4984261;28;20344;-79
2022/03/18 01:18:30;;;;;;;9.45;5.47;;;;;;;1.06;76.44;103916.19;4988565;28;20057;-80
2022/03/18 01:20:56;;;;;;;11.45;5.30;;;;;;;1.01;76.40;103925.00;4982689;28;20094;-80
2022/03/18 01:23:21;;;;;;;9.43;5.45;;;;;;;0.99;76.85;103929.06;4988238;28;20042;-80
2022/03/18 01:25:46;;;;;;;11.70;5.30;;;;;;;0.97;77.21;103921.19;4984618;28;20034;-80
2022/03/18 01:28:12;;;;;;;12.75;5.93;;;;;;;0.97;77.94;103918.63;4991276;28;20100;-80
2022/03/18 01:30:37;;;;;;;11.07;5.68;;;;;;;0.97;78.20;103920.25;4985794;28;20299;-79
2022/03/18 01:33:03;;;;;;;11.80;5.93;;;;;;;0.96;78.36;103916.78;4990951;28;20192;-80
2022/03/18 01:35:29;;;;;;;10.52;5.70;;;;;;;0.95;78.69;103919.19;5001642;28;20189;-80
2022/03/18 01:37:55;;;;;;;10.77;5.65;;;;;;;0.94;77.69;103919.91;4998480;28;20054;-79
2022/03/18 01:40:20;;;;;;;10.13;5.70;;;;;;;0.92;78.47;103917.19;4993184;28;20030;-79
2022/03/18 01:42:46;;;;;;;12.45;5.82;;;;;;;0.89;78.69;103914.28;4993781;28;20023;-79
2022/03/18 01:45:11;;;;;;;11.35;5.95;;;;;;;0.89;78.64;103913.38;5003052;28;20026;-79
2022/03/18 01:47:42;;;;;;;9.85;5.80;;;;;;;0.83;78.73;103919.63;5001420;28;20030;-80
2022/03/18 01:50:12;;;;;;;11.10;5.38;;;;;;;0.78;78.75;103922.41;4977587;28;20206;-79
2022/03/18 01:52:37;;;;;;;;;;;;;;;0.85;76.88;103925.88;4982923;28;20042;-80
2022/03/18 01:55:03;;;;;;;13.40;6.43;;;;;;;0.81;78.77;103927.91;4990725;28;19910;-79
2022/03/18 01:57:29;;;;;;;10.85;5.60;;;;;;;0.79;79.06;103932.84;4997637;28;20101;-80
2022/03/18 01:59:55;;;;;;;12.80;6.35;;;;;;;0.76;79.26;103929.94;4991959;28;20092;-80
2022/03/18 02:02:21;;;;;;;10.45;5.68;;;;;;;0.74;79.69;103922.81;4987356;28;20054;-80
2022/03/18 02:04:47;;;;;;;13.48;6.25;;;;;;;0.67;80.30;103916.97;5003636;28;20034;-80
2022/03/18 02:07:13;;;;;;;17.45;6.72;;;;;;;0.60;79.79;103917.03;4991368;28;20038;-80
2022/03/18 02:09:40;;;;;;;16.23;6.53;;;;;;;0.57;79.64;103924.38;4998422;28;20052;-80
2022/03/18 02:12:07;;;;;;;12.32;6.43;;;;;;;0.56;79.42;103931.91;4991095;28;20285;-80
2022/03/18 02:14:36;;;;;;;14.32;6.57;;;;;;;0.55;79.62;103925.88;5002319;28;20261;-80
2022/03/18 02:17:04;;;;;;;14.43;6.97;;;;;;;0.55;79.40;103932.63;4992210;28;20034;-77
2022/03/18 02:19:30;;;;;;;15.80;6.45;;;;;;;0.56;78.74;103942.16;5002414;28;20184;-77
2022/03/18 02:21:57;;;;;;;12.07;6.35;;;;;;;0.56;77.99;103939.59;4989939;28;20039;-78
2022/03/18 02:24:23;;;;;;;11.52;6.07;;;;;;;0.53;77.49;103947.84;4998644;28;20049;-78
2022/03/18 02:26:53;;;;;;;11.25;6.28;;;;;;;0.47;77.28;103942.94;4990941;28;20094;-78
2022/03/18 02:29:20;;;;;;;11.65;6.45;;;;;;;0.45;78.09;103941.84;5001420;28;20030;-78
2022/03/18 02:31:46;;;;;;;15.15;6.97;;;;;;;0.44;78.88;103945.16;5000029;28;20098;-78
2022/03/18 02:34:12;;;;;;;12.18;6.40;;;;;;;0.43;79.35;103939.84;4987670;28;20050;-78
2022/03/18 02:36:37;;;;;;;10.43;5.97;;;;;;;0.37;79.08;103940.06;5003370;28;20026;-78
2022/03/18 02:39:03;;;;;;;14.35;6.78;;;;;;;0.30;79.26;103935.84;4988646;28;20269;-78
2022/03/18 02:41:29;;;;;;;14.25;7.05;;;;;;;0.25;79.67;103946.34;4991768;28;20030;-78
2022/03/18 02:43:54;;;;;;;15.77;7.70;;;;;;;0.24;79.63;103955.66;4989028;28;20146;-78
2022/03/18 02:46:23;;;;;;;15.98;7.57;;;;;;;0.25;79.79;103952.38;5003058;28;20034;-78
2022/03/18 02:48:49;;;;;;;15.32;7.05;;;;;;;0.26;79.70;103949.09;4991268;28;20280;-78
2022/03/18 02:51:14;;;;;;;16.30;7.60;;;;;;;0.28;79.96;103946.69;4988165;28;20043;-78
2022/03/18 02:53:41;;;;;;;15.23;8.27;;;;;;;0.28;80.18;103956.97;4984567;28;20045;-78
2022/03/18 02:56:07;;;;;;;14.38;7.90;;;;;;;0.26;79.63;103955.84;4987884;28;20061;-78
2022/03/18 02:58:35;;;;;;;15.43;8.30;;;;;;;0.24;79.78;103950.53;4991666;28;20162;-78
2022/03/18 03:01:01;;;;;;;19.27;7.70;;;;;;;0.24;79.97;103954.75;4999541;28;20029;-78
2022/03/18 03:03:27;;;;;;;15.98;8.60;;;;;;;0.25;79.94;103956.59;4981936;28;20039;-77
2022/03/18 03:08:36;;;;;;;14.23;7.35;;;;;;;0.25;78.60;103967.75;4983936;28;20034;-78
2022/03/18 03:11:02;;;;;;;16.13;7.18;;;;;;;0.19;78.26;103972.19;4990377;28;20026;-77
2022/03/18 03:13:27;;;;;;;12.65;7.43;;;;;;;0.13;78.79;103967.25;4982576;28;20266;-77
2022/03/18 03:15:53;;;;;;;18.70;8.40;;;;;;;0.12;79.44;103975.69;4983785;28;20098;-77
2022/03/18 03:18:18;;;;;;;17.77;8.98;;;;;;;0.14;79.01;103969.06;4984300;28;20031;-77
2022/03/18 03:20:44;;;;;;;15.85;8.43;;;;;;;0.14;79.23;103973.28;4988266;28;20027;-78
2022/03/18 03:23:09;;;;;;;20.00;9.50;;;;;;;0.10;79.85;103972.03;4982969;28;20058;-78
2022/03/18 03:25:35;;;;;;;18.23;8.90;;;;;;;0.08;79.86;103968.34;4987823;28;20037;-78
2022/03/18 03:28:00;;;;;;;16.90;8.73;;;;;;;-0.01;79.64;103969.84;4981340;28;20037;-80
2022/03/18 03:30:25;;;;;;;18.20;9.07;;;;;;;-0.04;79.69;103985.78;5001585;28;20025;-80
2022/03/18 03:32:51;;;;;;;17.10;9.23;;;;;;;-0.03;80.44;103985.06;4994327;28;20269;-80
2022/03/18 03:35:17;;;;;;;19.95;9.20;;;;;;;-0.02;80.33;103983.41;4987624;28;20035;-80
2022/03/18 03:37:43;;;;;;;20.42;9.80;;;;;;;0.01;80.67;103982.84;4987365;28;20169;-80
2022/03/18 03:40:13;;;;;;;18.88;9.57;;;;;;;0.01;80.94;103981.19;4995507;28;20043;-80
2022/03/18 03:42:40;;;;;;;17.05;8.68;;;;;;;0.02;80.94;103983.03;4989979;28;20042;-80
2022/03/18 03:45:06;;;;;;;16.83;8.73;;;;;;;0.02;80.93;103988.16;4989633;28;20051;-80
2022/03/18 03:47:31;;;;;;;19.02;9.45;;;;;;;0.03;80.64;104002.81;4990178;28;20089;-80
2022/03/18 03:49:57;;;;;;;18.60;9.88;;;;;;;0.01;80.55;104000.81;4998189;28;20029;-80
2022/03/18 03:52:22;;;;;;;23.15;10.10;;;;;;;0.02;80.12;104000.97;4982692;28;20293;-80
2022/03/18 03:54:48;;;;;;;21.25;10.10;;;;;;;0.03;81.03;104010.50;4990846;28;20280;-80
2022/03/18 03:57:13;;;;;;;21.27;10.27;;;;;;;0.02;81.01;104002.63;4988317;28;20035;-78
2022/03/18 03:59:38;;;;;;;23.73;10.60;;;;;;;0.01;81.08;103996.56;4999468;28;20256;-78
2022/03/18 04:02:04;;;;;;;20.20;10.48;;;;;;;0.01;81.13;104009.38;4996594;28;20022;-78
2022/03/18 04:04:29;;;;;;;21.55;10.48;;;;;;;0.02;80.54;104013.78;4990193;28;20037;-78
2022/03/18 04:06:55;;;;;;;20.98;10.05;;;;;;;-0.01;80.17;104018.56;4988463;28;20026;-78
2022/03/18 04:09:20;;;;;;;22.85;11.07;;;;;;;-0.03;80.71;104026.06;4984512;28;20034;-77
2022/03/18 04:11:46;;;;;;;23.00;11.02;;;;;;;-0.04;79.71;104023.34;5001933;28;20026;-77
2022/03/18 04:14:11;;;;;;;23.92;11.10;;;;;;;-0.07;79.62;104028.09;4996570;28;20038;-77
2022/03/18 04:16:37;;;;;;;22.10;11.38;;;;;;;-0.11;80.11;104020.78;5004599;28;20034;-77
2022/03/18 04:19:05;;;;;;;23.75;11.70;;;;;;;-0.12;80.56;104024.97;4994228;28;20042;-77
2022/03/18 04:21:31;;;;;;;23.75;11.57;;;;;;;-0.12;80.36;104026.63;4986552;28;20069;-78
2022/03/18 04:23:56;;;;;;;26.98;12.18;;;;;;;-0.13;80.41;104037.59;4983252;28;20102;-77
2022/03/18 04:26:22;;;;;;;24.48;11.40;;;;;;;-0.12;80.37;104050.59;5002154;28;20065;-80
2022/03/18 04:28:48;;;;;;;25.38;13.00;;;;;;;-0.14;80.44;104051.19;4995055;28;20057;-80
2022/03/18 04:31:13;;;;;;;26.35;11.98;;;;;;;-0.16;80.55;104048.41;5001228;28;20039;-80
2022/03/18 04:33:38;;;;;;;28.45;11.35;;;;;;;-0.15;80.29;104049.34;4992167;28;20026;-80
2022/03/18 04:36:04;;;;;;;25.27;10.70;;;;;;;-0.15;80.72;104046.78;4982587;28;20136;-80
2022/03/18 04:38:30;;;;;;;22.25;10.88;;;;;;;-0.14;80.78;104061.44;4985364;28;20038;-80
2022/03/18 04:40:55;;;;;;;24.40;10.98;;;;;;;-0.17;80.64;104061.97;4990014;28;20065;-80
2022/03/18 04:43:21;;;;;;;27.83;11.48;;;;;;;-0.19;81.10;104058.28;4985678;28;20086;-80
2022/03/18 04:45:46;;;;;;;32.33;12.20;;;;;;;-0.20;81.54;104056.47;5000835;28;20042;-80
2022/03/18 04:48:11;;;;;;;31.98;13.27;;;;;;;-0.23;81.71;104054.47;4998960;28;20041;-80
2022/03/18 04:50:37;;;;;;;33.75;14.18;;;;;;;-0.25;81.58;104053.34;4986218;28;20023;-80
2022/03/18 04:53:02;;;;;;;31.17;13.38;;;;;;;-0.30;81.51;104062.16;4986151;28;20034;-80
2022/03/18 04:55:27;;;;;;;32.25;13.98;;;;;;;-0.32;81.40;104055.00;4986651;28;20027;-80
2022/03/18 04:57:53;;;;;;;35.78;14.25;;;;;;;-0.35;81.63;104063.22;4986763;28;20089;-78
2022/03/18 05:00:20;;;;;;;36.50;13.75;;;;;;;-0.38;81.21;104065.44;5000952;28;20030;-78
2022/03/18 05:02:45;;;;;;;32.78;13.77;;;;;;;-0.40;81.69;104072.03;4989288;28;20080;-78
2022/03/18 05:05:11;;;;;;;33.95;15.38;;;;;;;-0.43;82.30;104067.44;4982968;28;20086;-78
2022/03/18 05:07:39;;;;;;;31.60;15.20;;;;;;;-0.44;82.52;104077.50;4987340;28;20023;-78
2022/03/18 05:10:05;;;;;;;30.70;13.98;;;;;;;-0.47;82.98;104074.59;4989060;28;20064;-77
2022/03/18 05:12:31;;;;;;;30.83;13.38;;;;;;;-0.50;82.52;104084.47;4999263;28;20030;-78
2022/03/18 05:14:56;;;;;;;28.75;13.35;;;;;;;-0.51;82.76;104088.66;4986913;28;20028;-78
2022/03/18 05:17:22;;;;;;;27.40;13.38;;;;;;;-0.49;81.96;104091.38;4985803;28;20031;-78
2022/03/18 05:19:47;;;;;;;30.90;13.00;;;;;;;-0.49;82.59;104091.38;4991676;28;20173;-78
2022/03/18 05:22:13;;;;;;;28.95;12.60;;;;;;;-0.50;82.34;104095.63;4985252;28;20124;-78
2022/03/18 05:24:38;;;;;;;35.50;14.70;;;;;;;-0.51;83.17;104098.00;4990788;28;20325;-78
2022/03/18 05:27:04;;;;;;;30.17;13.38;;;;;;;-0.51;82.82;104104.00;4984255;28;20293;-78
2022/03/18 05:29:30;;;;;;;32.55;14.15;;;;;;;-0.49;82.96;104100.00;4990515;28;20273;-78
2022/03/18 05:31:55;;;;;;;32.90;14.13;;;;;;;-0.50;83.01;104103.28;4990596;28;20051;-78
2022/03/18 05:34:21;;;;;;;33.10;13.90;;;;;;;-0.50;82.78;104104.94;4991996;28;20265;-78
2022/03/18 05:36:47;;;;;;;26.92;11.88;;;;;;;-0.50;82.99;104110.06;4984219;28;20027;-78
2022/03/18 05:39:13;;;;;;;28.33;12.85;;;;;;;-0.51;82.84;104108.22;4991406;28;20097;-78
2022/03/18 05:41:38;;;;;;;28.95;13.75;;;;;;;-0.50;83.00;104107.50;4988126;28;20205;-78
2022/03/18 05:44:05;;;;;;;33.45;14.52;;;;;;;-0.53;83.29;104108.94;4988479;28;20026;-78
2022/03/18 05:46:30;;;;;;;34.78;15.88;;;;;;;-0.57;82.95;104106.75;4996576;28;20109;-78
2022/03/18 05:48:56;;;;;;;33.35;15.75;;;;;;;-0.60;83.77;104108.03;4992877;28;20069;-78
2022/03/18 05:51:21;;;;;;;32.20;16.67;;;;;;;-0.64;83.59;104108.38;4984282;28;20031;-78
2022/03/18 05:53:46;;;;;;;36.17;17.80;;;;;;;-0.67;83.80;104105.44;4989283;28;20046;-78
2022/03/18 05:58:56;;;;;;;30.45;17.17;;;;;;;-0.69;84.00;104107.84;4988898;28;20305;-78
2022/03/18 06:01:21;;;;;;;38.17;18.50;;;;;;;-0.69;83.92;104106.94;4996668;28;20273;-78
2022/03/18 06:03:48;;;;;;;39.72;18.08;;;;;;;-0.67;83.47;104124.28;4998587;28;20173;-78
2022/03/18 06:06:15;;;;;;;32.67;16.40;;;;;;;-0.65;83.19;104130.53;4983802;28;20365;-78
2022/03/18 06:14:08;;;;;;;35.78;15.50;;;;;;;-0.65;81.79;104134.72;4981459;28;20093;-78
2022/03/18 06:16:34;;;;;;;38.70;16.67;;;;;;;-0.62;82.29;104141.16;4985897;28;20027;-78
2022/03/18 06:19:00;;;;;;;32.70;16.63;;;;;;;-0.60;82.31;104142.22;4994862;28;20300;-78
2022/03/18 06:21:26;;;;;;;34.70;16.75;;;;;;;-0.60;81.65;104144.78;4986343;28;20035;-78
2022/03/18 06:23:52;;;;;;;31.95;15.50;;;;;;;-0.58;81.91;104153.59;4999245;28;20027;-78
2022/03/18 06:26:17;;;;;;;28.45;16.23;;;;;;;-0.57;82.01;104157.97;4989444;28;20032;-78
2022/03/18 06:28:42;;;;;;;32.45;17.30;;;;;;;-0.53;82.55;104159.28;4990491;28;20299;-78
2022/03/18 06:31:09;;;;;;;38.45;18.02;;;;;;;-0.50;82.70;104163.88;5003550;28;20026;-78
2022/03/18 06:33:36;;;;;;;37.08;17.05;;;;;;;-0.47;83.38;104164.22;4988223;28;20039;-78
2022/03/18 06:36:04;;;;;;;36.03;17.50;;;;;;;-0.43;84.12;104161.31;4982828;28;20022;-78
2022/03/18 06:38:29;;;;;;;35.33;18.52;;;;;;;-0.40;84.04;104159.13;4987609;28;20202;-78
2022/03/18 06:40:55;;;;;;;36.75;18.38;;;;;;;-0.35;84.32;104163.16;4988125;28;20073;-78
2022/03/18 06:43:20;;;;;;;41.28;19.42;;;;;;;-0.31;85.50;104160.22;4983487;28;20358;-78
2022/03/18 06:45:45;;;;;;;33.60;18.40;;;;;;;-0.26;84.48;104164.28;4986314;28;20050;-78
2022/03/18 06:48:10;;;;;;;35.08;19.77;;;;;;;-0.20;85.28;104170.16;4981278;28;20054;-78
2022/03/18 06:50:39;;;;;;;35.42;18.58;;;;;;;-0.10;85.98;104176.38;4977317;28;20026;-78
2022/03/18 06:53:04;;;;;;;40.67;18.90;;;;;;;0.01;84.82;104185.38;4985461;28;20034;-78
2022/03/18 06:55:29;;;;;;;35.28;18.50;;;;;;;0.15;84.74;104182.81;4987284;28;20023;-78
2022/03/18 06:57:54;;;;;;;36.55;18.15;;;;;;;0.30;84.16;104186.28;4990140;28;20098;-78
2022/03/18 07:00:20;;;;;;;32.90;18.17;;;;;;;0.48;83.74;104190.16;4981693;28;20047;-78
2022/03/18 07:02:45;;;;;;;35.10;18.75;;;;;;;0.69;83.83;104186.63;4982804;28;20261;-78
2022/03/18 07:05:12;;;;;;;34.63;18.83;;;;;;;0.99;82.67;104184.16;4988416;28;20273;-78
2022/03/18 07:07:37;;;;;;;41.50;20.05;;;;;;;1.31;81.78;104186.06;4992784;28;20023;-80
2022/03/18 07:10:03;;;;;;;35.67;19.40;;;;;;;1.56;81.13;104185.59;4995839;28;20031;-80
2022/03/18 07:12:29;;;;;;;34.75;19.73;;;;;;;1.78;80.87;104200.84;4994833;28;20038;-80
2022/03/18 07:14:54;;;;;;;38.05;20.27;;;;;;;2.13;80.55;104192.72;4989766;28;20104;-80
2022/03/18 07:20:04;;;;;;;38.92;20.15;;;;;;;4.29;74.91;104188.44;4988649;28;20405;-81
2022/03/18 07:22:29;;;;;;;35.55;20.50;;;;;;;4.74;71.43;104184.34;4985323;28;20039;-81
2022/03/18 07:24:55;;;;;;;42.13;22.10;;;;;;;4.81;72.04;104189.38;4990234;28;20053;-81
2022/03/18 07:27:20;;;;;;;37.88;22.02;;;;;;;5.32;70.09;104187.56;4978053;28;20177;-81
2022/03/18 07:29:46;;;;;;;40.75;22.35;;;;;;;5.72;69.57;104195.75;4992524;28;20057;-81
2022/03/18 07:32:11;;;;;;;46.60;23.13;;;;;;;6.43;67.65;104187.00;4990362;28;20039;-82
2022/03/18 07:34:37;;;;;;;45.40;24.23;;;;;;;7.03;65.47;104192.63;4987221;28;20027;-81
2022/03/18 07:37:03;;;;;;;44.83;24.48;;;;;;;7.39;63.87;104201.03;4988885;28;20054;-81
2022/03/18 07:39:28;;;;;;;42.03;25.08;;;;;;;7.55;63.69;104195.56;4989796;28;20325;-81
2022/03/18 07:41:53;;;;;;;50.58;26.27;;;;;;;7.71;63.92;104203.94;4989359;28;20265;-81
2022/03/18 07:44:19;;;;;;;56.50;26.73;;;;;;;7.82;65.27;104218.78;4993942;28;20027;-83
2022/03/18 07:46:44;;;;;;;48.45;27.15;;;;;;;7.86;64.04;104221.66;4994776;28;20054;-76
2022/03/18 07:49:09;;;;;;;51.55;27.52;;;;;;;8.11;65.02;104230.88;4994753;28;20050;-76
2022/03/18 07:51:35;;;;;;;46.35;25.55;;;;;;;9.16;62.81;104228.56;4984971;28;20335;-76
2022/03/18 07:54:01;;;;;;;41.40;23.30;;;;;;;9.92;59.96;104243.47;4986600;28;20058;-76
2022/03/18 07:56:27;;;;;;;33.38;19.65;;;;;;;9.40;59.82;104238.44;4983272;28;20080;-76
2022/03/18 07:58:54;;;;;;;31.40;18.90;;;;;;;8.61;62.06;104240.38;4990869;28;20031;-76
2022/03/18 08:01:19;;;;;;;27.42;15.63;;;;;;;7.89;64.23;104240.09;4987751;28;20049;-76
2022/03/18 08:03:44;;;;;;;21.02;13.90;;;;;;;7.35;66.18;104235.25;4990676;28;20030;-76
2022/03/18 08:06:09;;;;;;;21.65;13.50;;;;;;;6.93;68.04;104236.59;4989773;28;20062;-76
2022/03/18 08:08:35;;;;;;;21.65;12.73;;;;;;;6.56;69.62;104252.19;4992848;28;20034;-76
2022/03/18 08:11:00;;;;;;;18.88;12.60;;;;;;;6.31;71.07;104256.69;4993466;28;20100;-76
2022/03/18 08:13:26;;;;;;;19.88;12.27;;;;;;;6.14;71.52;104254.16;4995025;28;20058;-76
2022/03/18 08:15:52;;;;;;;17.77;11.77;;;;;;;6.03;72.44;104254.03;5002019;28;20044;-76
2022/03/18 08:18:18;;;;;;;16.05;11.43;;;;;;;5.96;73.40;104259.34;5002203;28;20045;-76
2022/03/18 08:20:44;;;;;;;17.45;10.75;;;;;;;5.94;73.58;104268.66;4992433;28;20099;-76
2022/03/18 08:23:14;;;;;;;16.55;10.27;;;;;;;5.94;73.71;104266.06;4999887;28;20399;-76
2022/03/18 08:25:40;;;;;;;16.27;9.20;;;;;;;5.96;73.34;104274.88;4981015;28;20035;-76
2022/03/18 08:28:07;;;;;;;18.92;9.27;;;;;;;5.98;73.32;104265.63;4988379;28;20023;-76
2022/03/18 08:30:33;;;;;;;16.30;9.35;;;;;;;6.01;73.84;104258.16;4984997;28;20030;-76
2022/03/18 08:32:59;;;;;;;13.65;9.10;;;;;;;6.06;74.39;104268.97;4984017;28;20178;-76
2022/03/18 08:35:24;;;;;;;14.63;9.50;;;;;;;6.12;75.09;104276.41;4991755;28;20206;-76
2022/03/18 08:37:56;;;;;;;17.88;9.23;;;;;;;6.19;74.69;104274.56;4983616;28;20030;-76
2022/03/18 08:40:22;;;;;;;17.67;9.40;;;;;;;6.28;74.72;104278.81;4983854;28;20030;-76
2022/03/18 08:42:47;;;;;;;12.82;8.82;;;;;;;6.35;74.46;104289.91;4984095;28;20078;-76
2022/03/18 08:45:13;;;;;;;14.52;7.97;;;;;;;6.40;73.09;104282.56;4985903;28;20030;-76
2022/03/18 08:47:38;;;;;;;17.17;7.78;;;;;;;6.47;72.94;104287.56;4993502;28;20030;-76
2022/03/18 08:50:07;;;;;;;12.27;7.82;;;;;;;6.55;72.78;104291.81;4981736;28;20100;-76
2022/03/18 08:52:32;;;;;;;14.25;7.68;;;;;;;6.63;71.78;104292.53;4984251;28;20089;-76
2022/03/18 08:54:58;;;;;;;16.55;8.45;;;;;;;6.73;72.60;104303.00;4984558;28;20027;-76
2022/03/18 08:57:23;;;;;;;12.88;7.40;;;;;;;6.84;72.00;104308.34;4985346;28;20019;-76
2022/03/18 08:59:49;;;;;;;14.50;7.65;;;;;;;6.95;71.57;104316.34;4982314;28;20090;-75
2022/03/18 09:02:14;;;;;;;14.50;8.00;;;;;;;7.05;70.90;104307.75;4988538;28;20082;-75
2022/03/18 09:04:39;;;;;;;15.13;8.88;;;;;;;7.13;71.03;104309.38;4988906;28;20026;-75
2022/03/18 09:07:05;;;;;;;16.05;8.40;;;;;;;7.21;70.08;104309.19;4999327;28;20320;-75
2022/03/18 09:09:30;;;;;;;11.93;8.05;;;;;;;7.29;70.01;104316.00;4997010;28;20026;-75
2022/03/18 09:11:55;;;;;;;15.57;9.05;;;;;;;7.37;70.08;104312.47;4988842;28;20042;-75
2022/03/18 09:14:21;;;;;;;15.95;9.05;;;;;;;7.47;68.99;104312.53;4993925;28;20030;-75
2022/03/18 09:16:49;;;;;;;14.40;8.98;;;;;;;7.55;68.74;104314.94;4990796;28;20041;-75
2022/03/18 09:19:14;;;;;;;16.33;8.88;;;;;;;7.65;68.70;104325.38;4998182;28;20031;-75
2022/03/18 09:21:39;;;;;;;13.57;8.80;;;;;;;7.71;68.28;104319.84;4987241;28;20073;-75
2022/03/18 09:24:05;;;;;;;17.10;9.02;;;;;;;7.77;67.84;104318.69;4995296;28;20316;-75
2022/03/18 09:26:31;;;;;;;13.68;8.40;;;;;;;7.92;68.40;104328.66;4988280;28;20041;-75
2022/03/18 09:28:56;;;;;;;15.57;8.48;;;;;;;8.09;67.32;104318.09;4998296;28;20026;-75
2022/03/18 09:31:21;;;;;;;13.93;8.38;;;;;;;8.28;66.53;104325.84;4993729;28;20276;-75
2022/03/18 09:33:48;;;;;;;11.15;6.47;;;;;;;8.42;64.68;104337.50;4997487;28;20248;-75
2022/03/18 09:36:18;;;;;;;10.07;6.88;;;;;;;8.56;64.08;104333.56;5001879;28;20045;-75
2022/03/18 09:38:47;;;;;;;10.48;6.55;;;;;;;8.67;61.54;104334.50;4991735;28;20030;-75
2022/03/18 09:41:13;;;;;;;13.85;7.35;;;;;;;8.72;61.21;104328.03;5002765;28;20041;-75
2022/03/18 09:43:40;;;;;;;13.50;7.30;;;;;;;8.83;63.46;104329.84;5004297;28;20022;-75
2022/03/18 09:46:08;;;;;;;15.40;7.13;;;;;;;8.93;62.24;104333.25;4998802;28;20050;-75
2022/03/18 09:48:34;;;;;;;11.05;7.28;;;;;;;9.02;61.08;104328.84;4993597;28;20053;-75
2022/03/18 09:51:00;;;;;;;12.75;7.40;;;;;;;9.11;61.84;104334.84;4983602;28;20189;-75
2022/03/18 09:53:25;;;;;;;14.57;7.40;;;;;;;9.20;60.29;104326.91;4987276;28;20030;-75
2022/03/18 09:55:51;;;;;;;11.43;6.55;;;;;;;9.30;59.17;104341.59;4987318;28;20050;-75
2022/03/18 09:58:18;;;;;;;11.35;6.30;;;;;;;9.38;59.55;104330.16;4984418;28;20226;-76
2022/03/18 10:00:43;;;;;;;9.82;6.47;;;;;;;9.52;60.10;104328.75;4989452;28;20112;-77
2022/03/18 10:03:12;;;;;;;10.40;5.88;;;;;;;9.64;58.93;104334.97;4996537;28;20337;-77
2022/03/18 10:05:59;;;;;;;11.57;6.10;;;;;;;9.78;59.66;104343.03;4991280;28;20042;-77
2022/03/18 10:08:25;;;;;;;10.57;5.53;;;;;;;9.90;58.38;104346.66;4989752;28;20041;-77
2022/03/18 10:10:51;;;;;;;10.57;5.53;;;;;;;10.00;56.58;104348.31;4984961;28;20014;-76
2022/03/18 10:13:17;;;;;;;9.05;5.50;;;;;;;10.10;57.75;104349.19;4986902;28;20034;-76
2022/03/18 10:15:44;;;;;;;13.20;6.20;;;;;;;10.21;57.88;104359.59;4978061;28;20289;-77
2022/03/18 10:18:13;;;;;;;9.27;4.50;;;;;;;10.28;55.37;104354.09;4979667;28;20276;-77
2022/03/18 10:20:45;;;;;;;8.18;4.10;;;;;;;10.37;56.86;104351.34;4976534;28;20258;-77
2022/03/18 10:23:22;;;;;;;10.45;3.90;;;;;;;10.50;55.33;104356.78;4980343;28;20030;-77
2022/03/18 10:25:57;;;;;;;7.63;3.47;;;;;;;10.63;56.01;104365.59;4978047;28;20042;-77
2022/03/18 10:28:40;;;;;;;7.72;4.03;;;;;;;10.67;54.38;104352.00;4980872;28;20200;-77
2022/03/18 10:31:19;;;;;;;12.02;4.30;;;;;;;10.72;52.76;104348.09;4984210;28;20026;-76
2022/03/18 10:39:37;;;;;;;6.93;3.53;;;;;;;10.99;52.91;104348.44;4981461;28;20069;-76
2022/03/18 10:42:06;;;;;;;9.57;4.13;;;;;;;11.11;54.19;104352.00;5000047;28;20212;-76
2022/03/18 10:44:52;;;;;;;8.77;3.85;;;;;;;11.22;54.11;104350.22;5001174;28;20022;-76
2022/03/18 10:47:26;;;;;;;10.10;3.90;;;;;;;11.26;52.89;104354.91;4984137;28;20038;-76
2022/03/18 10:49:51;;;;;;;7.30;4.00;;;;;;;11.34;53.31;104356.41;4979310;28;20030;-76
2022/03/18 10:52:23;;;;;;;8.18;3.88;;;;;;;11.40;52.65;104356.88;4979065;28;20030;-76
2022/03/18 10:54:50;;;;;;;7.70;3.78;;;;;;;11.48;53.55;104342.72;4982562;28;20031;-77
2022/03/18 10:57:17;;;;;;;11.60;4.20;;;;;;;11.63;52.65;104348.19;4976233;28;20030;-76
2022/03/18 10:59:42;;;;;;;8.63;3.92;;;;;;;11.76;53.32;104338.63;4982686;28;20074;-76
2022/03/18 11:02:11;;;;;;;11.23;4.07;;;;;;;11.83;52.84;104340.91;4981676;28;20050;-76
2022/03/18 11:04:37;;;;;;;7.78;4.03;;;;;;;11.84;48.69;104347.97;4993089;28;20034;-76
2022/03/18 11:12:33;;;;;;;8.57;3.90;;;;;;;12.02;51.10;104337.09;4982836;28;20074;-77
2022/03/18 11:14:59;;;;;;;8.07;3.75;;;;;;;12.12;50.85;104336.97;4980980;28;20268;-77
2022/03/18 11:17:25;;;;;;;8.50;3.90;;;;;;;12.24;50.30;104339.56;4976740;28;20241;-76
2022/03/18 11:19:52;;;;;;;7.45;4.00;;;;;;;12.27;49.32;104330.25;4987089;28;20034;-77
2022/03/18 11:22:20;;;;;;;7.90;4.28;;;;;;;12.25;49.18;104329.25;4985240;28;20046;-76
2022/03/18 11:24:47;;;;;;;8.48;3.90;;;;;;;12.20;47.55;104335.84;4985882;28;20043;-76
2022/03/18 11:27:12;;;;;;;9.18;3.90;;;;;;;12.20;49.47;104333.22;4978995;28;20037;-77
2022/03/18 11:29:38;;;;;;;8.23;4.07;;;;;;;12.26;50.92;104338.00;4981991;28;20031;-77
2022/03/18 11:32:09;;;;;;;8.80;4.28;;;;;;;12.41;50.67;104338.19;4982419;28;20030;-77
2022/03/18 11:35:03;;;;;;;9.75;4.40;;;;;;;12.49;52.04;104342.28;4982538;28;20043;-77
2022/03/18 11:37:32;;;;;;;8.48;4.03;;;;;;;12.57;50.23;104337.59;4984607;28;20086;-77
2022/03/18 11:40:27;;;;;;;9.45;4.03;;;;;;;12.67;51.22;104342.69;4991987;28;20019;-76
2022/03/18 11:42:54;;;;;;;10.98;4.10;;;;;;;12.66;47.44;104326.09;4979488;28;20360;-76
2022/03/18 11:45:34;;;;;;;7.70;3.97;;;;;;;12.63;48.98;104333.72;4989790;28;20030;-77
2022/03/18 11:47:59;;;;;;;9.45;4.38;;;;;;;12.62;48.07;104331.88;4982360;28;20457;-77
2022/03/18 11:50:44;;;;;;;11.05;4.60;;;;;;;12.72;50.91;104335.19;4989280;28;20030;-77